createdAt,value
2023-02-28T00:02:57.762Z,4.17
2023-02-28T00:06:00.304Z,3.97
2023-02-28T00:09:02.537Z,4.20
2023-02-28T00:12:11.318Z,4.13
2023-02-28T00:15:13.192Z,3.57
2023-02-28T00:18:15.178Z,3.57
2023-02-28T00:21:19.400Z,3.53
2023-02-28T00:24:21.288Z,4.13
2023-02-28T00:27:23.654Z,4.30
2023-02-28T00:30:26.006Z,4.37
2023-02-28T00:33:28.809Z,4.53
2023-02-28T00:36:31.078Z,4.03
2023-02-28T00:39:35.441Z,4.20
2023-02-28T00:42:37.583Z,4.57
2023-02-28T00:45:39.621Z,3.70
2023-02-28T00:48:41.522Z,4.27
2023-02-28T00:51:43.405Z,4.67
2023-02-28T00:54:45.827Z,4.63
2023-02-28T00:57:47.660Z,4.23
2023-02-28T01:00:50.477Z,4.63
2023-02-28T01:03:52.543Z,4.60
2023-02-28T01:06:54.547Z,5.43
2023-02-28T01:09:56.720Z,4.73
2023-02-28T01:12:59.055Z,4.87
2023-02-28T01:16:01.087Z,3.93
2023-02-28T01:19:03.312Z,3.60
2023-02-28T01:22:06.969Z,4.40
2023-02-28T01:25:10.233Z,4.30
2023-02-28T01:28:12.160Z,3.47
2023-02-28T01:31:14.354Z,4.03
2023-02-28T01:34:16.714Z,4.20
2023-02-28T01:37:18.652Z,4.43
2023-02-28T01:40:21.700Z,4.03
2023-02-28T01:43:29.306Z,4.60
2023-02-28T01:46:36.182Z,4.23
2023-02-28T01:49:38.305Z,4.33
2023-02-28T01:52:40.403Z,4.40
2023-02-28T01:55:44.127Z,4.93
2023-02-28T01:58:46.059Z,4.73
2023-02-28T02:01:48.701Z,4.93
2023-02-28T02:05:09.670Z,4.53
2023-02-28T02:08:14.515Z,5.03
2023-02-28T02:11:20.344Z,4.90
2023-02-28T02:14:31.702Z,5.23
2023-02-28T02:17:39.084Z,4.53
2023-02-28T02:21:09.019Z,5.00
2023-02-28T02:25:05.341Z,4.50
2023-02-28T02:28:38.017Z,4.57
2023-02-28T02:32:25.003Z,3.83
2023-02-28T02:35:47.956Z,4.53
2023-02-28T02:39:15.462Z,4.63
2023-02-28T02:42:30.011Z,4.03
2023-02-28T02:45:49.626Z,4.50
2023-02-28T02:48:53.756Z,4.40
2023-02-28T02:51:56.438Z,4.83
2023-02-28T02:55:00.341Z,4.43
2023-02-28T02:58:05.048Z,4.57
2023-02-28T03:01:07.793Z,4.77
2023-02-28T03:04:18.501Z,5.20
2023-02-28T03:07:20.960Z,4.67
2023-02-28T03:10:31.667Z,4.83
2023-02-28T03:13:54.297Z,4.00
2023-02-28T03:17:14.216Z,4.77
2023-02-28T03:25:03.256Z,4.17
2023-02-28T03:28:24.498Z,4.50
2023-02-28T03:31:29.793Z,5.20
2023-02-28T03:34:39.969Z,4.50
2023-02-28T03:42:15.954Z,4.00
2023-02-28T03:45:25.603Z,3.83
2023-02-28T03:48:33.544Z,4.13
2023-02-28T03:51:37.033Z,4.40
2023-02-28T03:54:45.960Z,4.33
2023-02-28T03:58:21.319Z,4.80
2023-02-28T04:01:47.206Z,4.60
2023-02-28T04:04:50.624Z,4.83
2023-02-28T04:07:53.284Z,3.83
2023-02-28T04:11:19.910Z,4.20
2023-02-28T04:14:21.891Z,4.03
2023-02-28T04:17:23.760Z,4.13
2023-02-28T04:20:25.702Z,4.10
2023-02-28T04:23:27.681Z,4.20
2023-02-28T04:26:32.099Z,4.20
2023-02-28T04:29:34.064Z,4.20
2023-02-28T04:32:36.063Z,4.47
2023-02-28T04:35:38.473Z,4.57
2023-02-28T04:38:40.491Z,3.70
2023-02-28T04:41:42.432Z,5.10
2023-02-28T04:44:44.858Z,4.67
2023-02-28T04:47:46.875Z,4.50
2023-02-28T04:50:49.073Z,5.07
2023-02-28T04:53:51.009Z,4.10
2023-02-28T04:56:53.243Z,3.90
2023-02-28T04:59:55.123Z,4.40
2023-02-28T05:02:57.108Z,4.60
2023-02-28T05:05:59.075Z,4.00
2023-02-28T05:09:01.238Z,4.20
2023-02-28T05:12:03.294Z,4.50
2023-02-28T05:15:06.233Z,6.27
2023-02-28T05:18:09.633Z,4.60
2023-02-28T05:21:34.012Z,6.70
2023-02-28T05:24:36.050Z,5.77
2023-02-28T05:27:38.200Z,6.20
2023-02-28T05:30:40.978Z,7.73
2023-02-28T05:33:42.945Z,4.90
2023-02-28T05:36:45.175Z,4.53
2023-02-28T05:39:47.239Z,4.40
2023-02-28T05:42:50.113Z,4.00
2023-02-28T05:45:52.194Z,4.43
2023-02-28T05:48:54.202Z,4.83
2023-02-28T05:51:56.232Z,4.50
2023-02-28T05:54:58.166Z,4.40
2023-02-28T05:58:00.156Z,4.90
2023-02-28T06:01:21.605Z,4.37
2023-02-28T06:04:31.447Z,4.20
2023-02-28T06:07:34.095Z,5.07
2023-02-28T06:10:36.703Z,4.00
2023-02-28T06:13:38.718Z,4.40
2023-02-28T06:16:40.703Z,4.10
2023-02-28T06:19:42.660Z,4.20
2023-02-28T06:22:44.804Z,3.80
2023-02-28T06:25:47.828Z,3.80
2023-02-28T06:28:49.749Z,4.30
2023-02-28T06:31:51.718Z,3.80
2023-02-28T06:34:54.547Z,4.10
2023-02-28T06:37:56.799Z,4.33
2023-02-28T06:41:00.525Z,3.90
2023-02-28T06:44:02.425Z,3.67
2023-02-28T06:47:06.278Z,4.37
2023-02-28T06:50:10.874Z,4.33
2023-02-28T06:53:12.791Z,4.53
2023-02-28T06:56:16.837Z,4.53
2023-02-28T06:59:18.774Z,3.83
2023-02-28T07:02:20.740Z,3.93
2023-02-28T07:05:22.695Z,4.10
2023-02-28T07:08:26.021Z,4.80
2023-02-28T07:11:29.799Z,3.67
2023-02-28T07:14:31.838Z,3.57
2023-02-28T07:17:33.718Z,3.67
2023-02-28T07:20:35.654Z,3.73
2023-02-28T07:23:42.795Z,3.77
2023-02-28T07:26:44.807Z,3.80
2023-02-28T07:29:48.407Z,3.83
2023-02-28T07:32:50.937Z,4.00
2023-02-28T07:35:52.895Z,3.67
2023-02-28T07:38:54.842Z,3.50
2023-02-28T07:41:56.758Z,4.20
2023-02-28T07:44:59.223Z,3.70
2023-02-28T07:48:01.221Z,4.70
2023-02-28T07:51:03.752Z,3.97
2023-02-28T07:54:06.036Z,5.00
2023-02-28T07:57:08.956Z,5.27
2023-02-28T08:00:14.235Z,5.03
2023-02-28T08:03:19.656Z,5.07
2023-02-28T08:06:24.098Z,3.83
2023-02-28T08:09:26.087Z,4.07
2023-02-28T08:12:28.320Z,3.63
2023-02-28T08:15:30.415Z,3.47
2023-02-28T08:18:34.508Z,3.80
2023-02-28T08:21:36.692Z,4.17
2023-02-28T08:24:39.695Z,4.40
2023-02-28T08:27:41.585Z,3.70
2023-02-28T08:30:44.099Z,4.30
2023-02-28T08:33:46.489Z,6.30
2023-02-28T08:36:48.559Z,5.30
2023-02-28T08:39:50.505Z,5.60
2023-02-28T08:42:52.677Z,5.27
2023-02-28T08:45:55.988Z,5.33
2023-02-28T08:49:03.160Z,5.27
2023-02-28T08:52:05.245Z,5.33
2023-02-28T08:55:08.902Z,5.77
2023-02-28T08:58:11.016Z,6.07
2023-02-28T09:01:21.351Z,5.80
2023-02-28T09:04:25.312Z,6.23
2023-02-28T09:07:27.818Z,5.77
2023-02-28T09:10:30.076Z,6.00
2023-02-28T09:13:34.551Z,5.93
2023-02-28T09:16:37.320Z,5.63
2023-02-28T09:19:39.923Z,6.17
2023-02-28T09:22:41.911Z,5.97
2023-02-28T09:25:49.228Z,6.23
2023-02-28T09:28:52.845Z,6.77
2023-02-28T09:31:55.857Z,6.17
2023-02-28T09:34:58.106Z,6.63
2023-02-28T09:38:00.173Z,6.63
2023-02-28T09:41:05.261Z,6.50
2023-02-28T09:44:10.116Z,6.23
2023-02-28T09:47:56.909Z,6.90
2023-02-28T09:51:06.185Z,7.23
2023-02-28T09:54:21.265Z,6.73
2023-02-28T09:57:41.165Z,7.03
2023-02-28T10:00:43.414Z,6.50
2023-02-28T10:04:10.252Z,7.30
2023-02-28T10:07:21.911Z,6.80
2023-02-28T10:10:55.104Z,6.73
2023-02-28T10:14:03.750Z,6.13
2023-02-28T10:17:11.467Z,8.10
2023-02-28T10:20:16.448Z,7.63
2023-02-28T10:23:30.176Z,6.37
2023-02-28T10:26:33.975Z,8.33
2023-02-28T10:29:37.274Z,6.93
2023-02-28T10:32:40.171Z,6.93
2023-02-28T10:35:42.288Z,7.37
2023-02-28T10:38:46.058Z,7.50
2023-02-28T10:41:48.706Z,7.13
2023-02-28T10:44:50.635Z,8.10
2023-02-28T10:47:57.832Z,8.47
2023-02-28T10:51:00.824Z,8.33
2023-02-28T10:54:04.740Z,9.07
2023-02-28T10:57:25.696Z,9.20
2023-02-28T11:00:35.102Z,8.80
2023-02-28T11:03:37.145Z,9.03
2023-02-28T11:06:40.735Z,9.70
2023-02-28T11:09:44.574Z,9.80
2023-02-28T11:12:52.614Z,10.23
2023-02-28T11:15:57.491Z,8.80
2023-02-28T11:19:01.351Z,8.83
2023-02-28T11:22:04.240Z,9.27
2023-02-28T11:25:36.865Z,9.27
2023-02-28T11:28:43.455Z,10.30
2023-02-28T11:31:46.203Z,10.40
2023-02-28T11:35:10.294Z,10.30
2023-02-28T11:38:17.524Z,10.23
2023-02-28T11:42:03.347Z,9.73
2023-02-28T11:45:18.111Z,9.20
2023-02-28T11:48:28.540Z,9.30
2023-02-28T11:51:36.178Z,9.67
2023-02-28T11:54:50.174Z,9.17
2023-02-28T11:58:04.011Z,10.20
2023-02-28T12:01:24.009Z,11.00
2023-02-28T12:04:26.172Z,11.40
2023-02-28T12:07:30.868Z,10.70
2023-02-28T12:10:46.632Z,10.63
2023-02-28T12:13:56.806Z,11.13
2023-02-28T12:17:17.507Z,10.33
2023-02-28T12:20:34.966Z,11.57
2023-02-28T12:24:14.656Z,10.63
2023-02-28T12:27:20.045Z,11.13
2023-02-28T12:30:28.615Z,11.47
2023-02-28T12:33:36.229Z,11.40
2023-02-28T12:36:38.817Z,12.03
2023-02-28T12:39:50.497Z,11.03
2023-02-28T12:43:05.096Z,11.30
2023-02-28T12:46:14.437Z,11.67
2023-02-28T12:49:25.023Z,10.87
2023-02-28T12:52:40.636Z,11.93
2023-02-28T12:56:10.666Z,11.17
2023-02-28T12:59:24.680Z,11.83
2023-02-28T13:02:32.612Z,11.67
2023-02-28T13:06:14.779Z,13.00
2023-02-28T13:09:18.033Z,11.53
2023-02-28T13:12:21.719Z,11.57
2023-02-28T13:15:29.794Z,12.50
2023-02-28T13:18:44.983Z,12.53
2023-02-28T13:21:50.066Z,12.17
2023-02-28T13:24:57.686Z,11.67
2023-02-28T13:28:02.173Z,12.67
2023-02-28T13:31:05.792Z,12.53
2023-02-28T13:34:16.123Z,12.00
2023-02-28T13:37:21.192Z,13.00
2023-02-28T13:40:38.349Z,12.83
2023-02-28T13:44:02.495Z,13.27
2023-02-28T13:47:04.701Z,11.87
2023-02-28T13:50:28.638Z,13.27
2023-02-28T13:53:57.239Z,12.70
2023-02-28T13:57:30.735Z,12.47
2023-02-28T14:08:15.013Z,12.13
2023-02-28T14:11:32.502Z,11.53
2023-02-28T14:14:37.570Z,12.50
2023-02-28T14:17:39.743Z,11.37
2023-02-28T14:20:42.309Z,10.80
2023-02-28T14:23:52.938Z,11.97
2023-02-28T14:26:58.036Z,12.03
2023-02-28T14:30:17.194Z,11.40
2023-02-28T14:33:28.134Z,11.67
2023-02-28T14:36:41.815Z,13.87
2023-02-28T14:39:45.582Z,12.73
2023-02-28T14:43:00.958Z,13.37
2023-02-28T14:46:06.094Z,13.20
2023-02-28T14:49:20.208Z,12.90
2023-02-28T14:52:29.474Z,11.93
2023-02-28T14:55:34.182Z,12.30
2023-02-28T14:58:36.712Z,12.10
2023-02-28T15:01:38.663Z,12.70
2023-02-28T15:04:43.366Z,13.97
2023-02-28T15:07:46.219Z,13.83
2023-02-28T15:11:09.004Z,13.00
2023-02-28T15:14:18.949Z,11.83
2023-02-28T15:17:25.126Z,13.33
2023-02-28T15:20:27.892Z,13.23
2023-02-28T15:23:30.362Z,13.57
2023-02-28T15:26:37.217Z,13.53
2023-02-28T15:30:00.877Z,13.13
2023-02-28T15:33:17.382Z,13.57
2023-02-28T15:36:23.011Z,12.77
2023-02-28T15:39:28.409Z,12.50
2023-02-28T15:42:33.111Z,13.57
2023-02-28T15:45:38.681Z,12.07
2023-02-28T15:48:55.617Z,14.07
2023-02-28T15:51:59.784Z,13.83
2023-02-28T15:55:26.037Z,14.33
2023-02-28T15:58:28.735Z,14.00
2023-02-28T16:01:36.032Z,14.73
2023-02-28T16:04:38.988Z,13.23
2023-02-28T16:07:44.331Z,14.27
2023-02-28T16:10:46.266Z,13.50
2023-02-28T16:13:48.569Z,13.33
2023-02-28T16:16:57.747Z,15.03
2023-02-28T16:20:00.259Z,14.30
2023-02-28T16:23:04.112Z,14.97
2023-02-28T16:26:07.266Z,13.87
2023-02-28T16:29:11.517Z,14.10
2023-02-28T16:32:15.921Z,13.33
2023-02-28T16:35:19.121Z,12.50
2023-02-28T16:38:21.307Z,14.33
2023-02-28T16:41:28.165Z,14.17
2023-02-28T16:47:56.478Z,14.13
2023-02-28T16:50:58.935Z,13.83
2023-02-28T16:54:01.241Z,14.03
2023-02-28T16:57:03.734Z,13.53
2023-02-28T17:00:09.216Z,14.77
2023-02-28T17:03:32.018Z,13.97
2023-02-28T17:06:35.076Z,13.73
2023-02-28T17:09:43.033Z,15.07
2023-02-28T17:12:46.226Z,16.10
2023-02-28T17:15:48.522Z,15.03
2023-02-28T17:18:51.636Z,15.13
2023-02-28T17:21:54.057Z,15.43
2023-02-28T17:24:59.936Z,14.63
2023-02-28T17:28:02.004Z,15.63
2023-02-28T17:31:04.137Z,14.87
2023-02-28T17:34:06.125Z,14.47
2023-02-28T17:37:10.391Z,14.50
2023-02-28T17:40:19.124Z,13.10
2023-02-28T17:43:21.665Z,13.70
2023-02-28T17:46:25.699Z,14.03
2023-02-28T17:49:28.668Z,15.03
2023-02-28T17:52:30.692Z,14.90
2023-02-28T17:55:32.737Z,14.60
2023-02-28T17:58:34.708Z,16.03
2023-02-28T18:01:36.811Z,14.27
2023-02-28T18:04:38.874Z,14.50
2023-02-28T18:07:41.280Z,15.43
2023-02-28T18:10:43.606Z,14.90
2023-02-28T18:13:50.510Z,13.47
2023-02-28T18:16:53.902Z,15.63
2023-02-28T18:19:56.296Z,13.90
2023-02-28T18:22:58.176Z,14.80
2023-02-28T18:26:00.150Z,14.37
2023-02-28T18:29:02.092Z,14.03
2023-02-28T18:32:04.834Z,14.40
2023-02-28T18:35:07.684Z,14.00
2023-02-28T18:38:15.882Z,15.30
2023-02-28T18:41:21.977Z,17.00
2023-02-28T18:44:24.136Z,15.27
2023-02-28T18:47:26.752Z,15.33
2023-02-28T18:50:29.922Z,16.00
2023-02-28T18:53:31.800Z,15.07
2023-02-28T18:56:33.787Z,15.37
2023-02-28T18:59:36.760Z,15.33
2023-02-28T19:02:38.828Z,14.57
2023-02-28T19:05:40.726Z,14.90
2023-02-28T19:08:42.741Z,15.53
2023-02-28T19:11:44.611Z,15.10
2023-02-28T19:14:47.876Z,15.67
2023-02-28T19:17:49.745Z,14.63
2023-02-28T19:20:51.689Z,15.00
2023-02-28T19:23:54.463Z,15.90
2023-02-28T19:26:56.352Z,15.37
2023-02-28T19:29:59.801Z,14.87
2023-02-28T19:33:01.886Z,14.93
2023-02-28T19:36:03.938Z,16.67
2023-02-28T19:39:06.010Z,15.67
2023-02-28T19:42:16.295Z,15.90
2023-02-28T19:45:18.341Z,14.60
2023-02-28T19:48:25.258Z,16.63
2023-02-28T19:51:28.023Z,15.23
2023-02-28T19:54:30.004Z,16.70
2023-02-28T19:57:32.529Z,16.63
2023-02-28T20:00:34.590Z,15.17
2023-02-28T20:03:36.610Z,15.87
2023-02-28T20:06:38.790Z,15.33
2023-02-28T20:09:40.981Z,15.50
2023-02-28T20:12:42.952Z,15.20
2023-02-28T20:15:44.972Z,15.53
2023-02-28T20:18:51.540Z,15.83
2023-02-28T20:21:53.956Z,14.97
2023-02-28T20:24:55.814Z,15.67
2023-02-28T20:27:57.851Z,14.50
2023-02-28T20:31:00.796Z,14.63
2023-02-28T20:34:02.847Z,15.30
2023-02-28T20:37:04.805Z,16.50
2023-02-28T20:43:28.155Z,15.80
2023-02-28T20:46:31.856Z,15.87
2023-02-28T20:49:34.284Z,16.50
2023-02-28T20:52:36.160Z,17.20
2023-02-28T20:55:38.075Z,15.67
2023-02-28T20:58:40.330Z,17.07
2023-02-28T21:01:45.653Z,18.10
2023-02-28T21:04:47.556Z,16.23
2023-02-28T21:07:49.837Z,15.57
2023-02-28T21:10:51.694Z,15.60
2023-02-28T21:13:54.673Z,14.73
2023-02-28T21:16:57.042Z,14.57
2023-02-28T21:19:59.017Z,15.27
2023-02-28T21:23:01.083Z,15.10
2023-02-28T21:26:12.842Z,15.70
2023-02-28T21:29:15.337Z,15.37
2023-02-28T21:32:17.997Z,15.67
2023-02-28T21:35:20.100Z,15.57
2023-02-28T21:38:22.350Z,15.37
2023-02-28T21:41:24.825Z,16.23
2023-02-28T21:44:28.333Z,15.37
2023-02-28T21:47:30.942Z,17.10
2023-02-28T21:50:33.352Z,16.33
2023-02-28T21:53:37.771Z,15.73
2023-02-28T21:56:40.161Z,15.20
2023-02-28T21:59:43.280Z,17.10
2023-02-28T22:02:45.321Z,16.90
2023-02-28T22:05:47.322Z,16.30
2023-02-28T22:08:54.349Z,15.57
2023-02-28T22:11:57.490Z,15.67
2023-02-28T22:14:59.821Z,17.40
2023-02-28T22:18:01.746Z,15.33
2023-02-28T22:21:04.591Z,16.83
2023-02-28T22:24:06.950Z,16.57
2023-02-28T22:27:08.971Z,16.70
2023-02-28T22:30:11.811Z,17.80
2023-02-28T22:33:14.975Z,15.90
2023-02-28T22:36:18.505Z,17.20
2023-02-28T22:39:21.825Z,15.47
2023-02-28T22:42:23.736Z,16.83
2023-02-28T22:45:29.929Z,16.87
2023-02-28T22:48:31.782Z,17.10
2023-02-28T22:51:34.675Z,17.57
2023-02-28T22:54:36.649Z,15.60
2023-02-28T22:57:38.789Z,16.43
2023-02-28T23:00:40.679Z,16.73
2023-02-28T23:03:44.213Z,17.13
2023-02-28T23:06:46.529Z,16.63
2023-02-28T23:09:51.578Z,15.57
2023-02-28T23:12:53.678Z,16.97
2023-02-28T23:19:20.857Z,17.13
2023-02-28T23:22:22.936Z,16.73
2023-02-28T23:25:25.852Z,17.07
2023-02-28T23:28:27.988Z,17.40
2023-02-28T23:31:30.718Z,17.53
2023-02-28T23:34:33.046Z,17.47
2023-02-28T23:37:36.635Z,17.83
2023-02-28T23:40:41.555Z,17.87
2023-02-28T23:43:44.565Z,17.60
2023-02-28T23:46:48.844Z,17.30
2023-02-28T23:49:50.966Z,18.00
2023-02-28T23:52:53.637Z,18.10
2023-02-28T23:55:56.962Z,19.40
2023-02-28T23:59:00.090Z,18.80
